• Join FlightAware (Why Join?)
  • Login
  • US Flag 
07:48AM EST


 

Airport Tracker/Info


-or-


 

Live Flight TrackerFlight Track Log ✈ N6711L ✈ 15-May-2014 ✈ KEYW - KAPF

Flight Track Log - Related Links

Times and Time Zones

All times are in EDT time to prevent confusion due to time zone crossing. See the N6711L flight status page for this flight to view local times or setup timezone preferences in your user account.

Time Position Orientation Groundspeed Altitude Reporting Facility
EDT Latitude Longitude Course Direction KTS MPH feet Rate Location/Type
03:23PM 24.6786 -81.7656 17° North 141 162 4,700  Level Miami Center
03:24PM 24.7169 -81.7547 14° North 143 165 6,000 1,140 Climbing Miami Center
03:25PM 24.7556 -81.7447 13° North 142 163 7,100 480 Climbing Miami Center
03:26PM 24.8041 -81.7115 13° North  Level FlightAware Approximate
03:26PM 24.8022 -81.7306 15° North 164 189 7,100  Level Miami Center
03:27PM 24.8459 -81.7010 13° North  Level FlightAware Approximate
03:27PM 24.8517 -81.7164 15° North 178 205 7,100  Level Miami Center
03:28PM 24.9011 -81.7014 15° North 180 207 7,000 -60 Descending Miami Center
03:29PM 24.9608 -81.6825 16° North 181 208 7,000  Level Miami Center
03:30PM 25.0100 -81.6669 16° North 182 209 7,000  Level Miami Center
03:31PM 25.0603 -81.6517 15° North 183 211 7,000  Level Miami Center
03:32PM 25.1097 -81.6350 17° North 183 211 7,000  Level Miami Center
03:33PM 25.1597 -81.6192 16° North 185 213 7,100  Climbing Miami Center
03:34PM 25.2094 -81.6031 16° North 185 213 7,100  Level Miami Center
03:35PM 25.2689 -81.5847 16° North 185 213 7,100  Level Miami Center
03:36PM 25.3192 -81.5775 North 183 211 7,100  Level Miami Center
03:37PM 25.3683 -81.5928 344° North 183 211 7,200 -360 Climbing Miami Center
03:38PM 25.4194 -81.6031 350° North 183 211 6,400 -780 Descending Miami Center
03:39PM 25.4758 -81.6161 348° North 199 229 5,700 -600 Descending Miami Center
03:40PM 25.5289 -81.6292 347° North 199 229 5,200 -600 Descending Miami Center
03:41PM 25.5922 -81.6428 349° North 198 228 4,500 -600 Descending Miami Center
03:42PM 25.6450 -81.6564 347° North 197 227 4,000 -240 Descending Miami Center
03:44PM 25.6964 -81.6678 349° North 173 199 4,000  Level Miami Center
03:45PM 25.7428 -81.6789 348° North 170 196 4,000  Level Miami Center
03:46PM 25.7947 -81.6669 12° North 176 203 4,000  Level Miami Center
03:47PM 25.8425 -81.6550 13° North 176 203 4,000  Level Miami Center
03:48PM 25.8939 -81.6425 12° North 177 204 4,000 -240 Level Miami Center
03:49PM 25.9433 -81.6311 12° North 180 207 3,600 -540 Descending Miami Center
03:50PM 26.0017 -81.6167 13° North 199 229 3,000 -300 Descending Miami Center
03:51PM 26.0489 -81.6050 13° North 182 209 3,000  Level Miami Center
03:52PM 26.1008 -81.5933 11° North 181 208 3,000  Level Miami Center
03:53PM 26.1525 -81.5817 11° North 180 207 3,000  Level Miami Center
03:54PM 26.2006 -81.5700 12° North 179 206 3,000 -540 Level Miami Center
03:55PM 26.2469 -81.5831 346° North 179 206 1,900 -480 Descending Miami Center
03:56PM 26.2733 -81.6131 314° West 142 163 2,100 60 Climbing Miami Center
03:57PM 26.2714 -81.6500 267° West 128 147 2,100  Level Miami Center
03:58PM 26.2483 -81.6728 222° Southwest 114 131 2,100 -180 Level Miami Center
03:59PM 26.2247 -81.6961 222° Southwest 109 125 1,800 -480 Descending Miami Center
04:00PM 26.2044 -81.7197 226° Southwest 109 125 1,200 -600 Descending Miami Center
04:01PM 26.1806 -81.7456 224° Southwest 109 125 600 -480 Descending Miami Center
04:02PM 26.1617 -81.7664 225° Southwest 109 125 300 -300 Descending Miami Center